Página principal
METAR-TAF:

METAR-TAF

Aeroportos :

Hanói, Vietname

Aeroporto Internacional de Noi Bai

latitude: 21-01N, longitude: 105-48E, altura: 6 m

Observação actual do tempo

O boletim foi feito há 33 minutos, às 01:30 UTC
Vento 5 kt de noroeste
Temperatura 20°C
Humidade 88%
Pressão 1017 hPa
Visibilidade 10 km ou mais
Nuvens fragmentadasa uma altura de 3300 ft

METAR: VVNB 180130Z 31005KT 9999 BKN033 20/18 Q1017 NOSIG

Hora: 09:03 (02:03 UTC)

Previsão

O boletim foi feito há 3 horas e 3 minutos, às 23:00 UTC
Previsão válida de 18 às 00 UTC a 18 às 24 UTC
Vento 7 kt de nor-noroeste
Visibilidade: 6000 m
Poucas nuvensa uma altura de 1500 ft
Nuvens fragmentadasa uma altura de 4000 ft
Temporariamente
de 18 às 00 UTC a 18 às 03 UTC
Visibilidade: 4000 m
Nuvens dispersasa uma altura de 800 ft
Nuvens fragmentadasa uma altura de 1500 ft
chuva

TAF: VVNB 172300Z 1800/1824 34007KT 6000 FEW015 BKN040 TEMPO 1800/1803 4000 RA SCT008 BKN015 0VC040

Observações e previsões do tempo de mais de 4000 aeroportos (mensagens METAR e TAF).

As estações disponíveis são os pontos amarelos e vermelhos sobre o mapa.

Mova o rato sobre o mapa para ver o nome da estação.

Depois clique no ponto para visualizar as observações e previsões meteorológicas.

Para alterar o mapa : clique nos botões verdes com uma cruz preta para aumentar o zoom; no botão verde com uma pitada de zoom; ou nas setas verdes para mapas adjacentes.


METAR-TAF: